La Sierra, California
Current Conditions -  °F | °C
As of 12:53 AM on Tuesday 21 Oct 2014 (Local Time) from KRAL Reporting Station
Clear Clear  
Wind Chill: 62°   Ceiling: Unl
Heat Index: 62°   Visibility: 9mi
Dew Point: 58°   Wind: 0mph
Humidity: 86%   Direction: NA
Pressure: 29.92"   Gusts: NA
Location:  33.9229°N, 117.493°W
Report Text: KRAL 210753Z AUTO 00000KT 9SM CLR 17/14 A2992 RMK AO2 SLP117 T01670144 402720144
Loading
Personal Weather Stations






























Interactive Weather Map
Tropical Storm Tracking
New forecast layout! Learn more

10-Day Weather Forecast

Advertisements
Track Severe Weather on mobile